Time;durP1;ratioP1;P1;durP2;ratioP2;P2;SDS_P1;SDS_P2;PMS_P1;PMS_P2;Temp;Humidity;BMP_temperature;BMP_pressure;BME280_temperature;BME280_humidity;BME280_pressure;Samples;Min_cycle;Max_cycle;Signal;HPM_P1;HPM_P2
2022/12/05 00:02:08;;;;;;;21.23;8.70;;;5.10;1.00;;;;;;5069047;28;20734;-62
2022/12/05 00:04:34;;;;;;;22.73;8.73;;;4.40;1.00;;;;;;5068253;28;20438;-61
2022/12/05 00:07:00;;;;;;;19.90;8.07;;;5.10;1.00;;;;;;5069258;28;20449;-62
2022/12/05 00:09:25;;;;;;;24.07;9.43;;;4.30;1.00;;;;;;5068372;28;20743;-62
2022/12/05 00:11:51;;;;;;;19.73;8.10;;;4.30;1.00;;;;;;5068893;28;20845;-63
2022/12/05 00:14:17;;;;;;;19.30;8.10;;;6.00;1.00;;;;;;5065166;28;20403;-61
2022/12/05 00:16:44;;;;;;;21.02;8.18;;;4.40;99.90;;;;;;5068702;28;20478;-61
2022/12/05 00:19:13;;;;;;;18.73;7.72;;;4.40;1.00;;;;;;5068655;28;20789;-61
2022/12/05 00:21:38;;;;;;;20.20;8.32;;;6.20;99.90;;;;;;5068342;28;20603;-62
2022/12/05 00:24:06;;;;;;;19.23;8.13;;;5.90;99.90;;;;;;5068892;28;20869;-61
2022/12/05 00:26:32;;;;;;;24.17;8.67;;;4.30;99.90;;;;;;5062677;28;20720;-59
2022/12/05 00:28:58;;;;;;;19.70;7.67;;;4.30;99.90;;;;;;5068978;28;20429;-59
2022/12/05 00:31:25;;;;;;;21.17;7.65;;;6.40;99.90;;;;;;5067664;28;21018;-60
2022/12/05 00:33:51;;;;;;;21.35;7.47;;;4.40;10.40;;;;;;5063834;28;20398;-60
2022/12/05 00:36:21;;;;;;;19.80;8.50;;;4.40;1.00;;;;;;5067921;28;20407;-61
2022/12/05 00:38:46;;;;;;;21.02;8.20;;;4.90;99.90;;;;;;5067559;28;20644;-60
2022/12/05 00:41:15;;;;;;;17.30;7.03;;;4.50;99.90;;;;;;5068340;28;20414;-60
2022/12/05 00:43:41;;;;;;;19.75;7.22;;;5.80;99.90;;;;;;5068146;28;21115;-61
2022/12/05 00:46:14;;;;;;;19.52;7.93;;;6.30;2.60;;;;;;5068756;28;20384;-61
2022/12/05 00:48:40;;;;;;;19.13;8.33;;;6.40;1.00;;;;;;5067701;28;20380;-61
2022/12/05 00:51:11;;;;;;;19.95;7.85;;;4.60;99.90;;;;;;5068602;28;20464;-61
2022/12/05 00:53:38;;;;;;;21.42;8.32;;;4.50;99.90;;;;;;5067850;28;20740;-60
2022/12/05 00:56:08;;;;;;;22.42;7.82;;;4.50;99.90;;;;;;5068508;28;20388;-61
2022/12/05 00:58:34;;;;;;;21.13;7.97;;;4.40;1.00;;;;;;5065360;28;20505;-60
2022/12/05 01:01:10;;;;;;;18.00;7.00;;;5.20;99.90;;;;;;5068670;28;20477;-61
2022/12/05 01:03:35;;;;;;;23.25;8.07;;;5.50;99.90;;;;;;5069420;28;20399;-60
2022/12/05 01:06:01;;;;;;;22.80;8.50;;;4.40;1.00;;;;;;5072516;28;20407;-60
2022/12/05 01:08:27;;;;;;;20.70;9.07;;;4.40;99.90;;;;;;5071350;28;20382;-60
2022/12/05 01:10:54;;;;;;;23.38;8.35;;;4.50;99.90;;;;;;5072274;28;20849;-61
2022/12/05 01:13:20;;;;;;;19.80;7.95;;;4.50;1.00;;;;;;5071857;28;20753;-60
2022/12/05 01:15:46;;;;;;;17.50;7.45;;;4.30;1.00;;;;;;5071653;28;20849;-61
2022/12/05 01:18:11;;;;;;;19.73;8.40;;;4.30;1.00;;;;;;5071913;28;20380;-60
2022/12/05 01:20:41;;;;;;;19.70;7.55;;;5.80;1.00;;;;;;5071217;28;20737;-60
2022/12/05 01:23:07;;;;;;;19.13;7.50;;;4.30;1.00;;;;;;5071818;28;20940;-61
2022/12/05 01:25:32;;;;;;;22.65;7.93;;;4.30;99.90;;;;;;5070987;28;20380;-61
2022/12/05 01:27:58;;;;;;;21.83;7.65;;;5.10;99.90;;;;;;5071581;28;20384;-60
2022/12/05 01:30:24;;;;;;;17.88;7.47;;;6.20;99.90;;;;;;5071090;28;20380;-65
2022/12/05 01:32:49;;;;;;;21.37;8.83;;;5.40;99.90;;;;;;5069671;28;20423;-61
2022/12/05 01:35:15;;;;;;;19.98;8.60;;;5.80;99.90;;;;;;5069454;28;20907;-60
2022/12/05 01:37:41;;;;;;;20.20;8.20;;;4.40;36.80;;;;;;5070743;28;20411;-61
2022/12/05 01:40:07;;;;;;;21.40;8.40;;;4.40;99.90;;;;;;5071690;28;20750;-61
2022/12/05 01:42:33;;;;;;;20.45;8.85;;;4.40;1.00;;;;;;5070639;28;20412;-61
2022/12/05 01:45:07;;;;;;;19.73;8.38;;;4.40;1.00;;;;;;5071231;28;20869;-60
2022/12/05 01:47:35;;;;;;;21.52;7.65;;;4.50;1.00;;;;;;5068417;28;20403;-61
2022/12/05 01:50:02;;;;;;;26.33;9.50;;;4.60;99.90;;;;;;5071584;28;20394;-61
2022/12/05 01:52:29;;;;;;;21.67;8.85;;;4.60;99.90;;;;;;5070461;28;20391;-61
2022/12/05 01:55:00;;;;;;;20.53;8.30;;;4.70;99.90;;;;;;5071189;28;20391;-60
2022/12/05 01:57:25;;;;;;;21.17;8.37;;;4.70;1.00;;;;;;5070396;28;20768;-65
2022/12/05 01:59:56;;;;;;;22.55;8.57;;;4.70;1.00;;;;;;5068489;28;20503;-60
2022/12/05 02:02:22;;;;;;;24.10;8.68;;;5.20;99.90;;;;;;5053125;28;20453;-64
2022/12/05 02:05:16;;;;;;;21.13;8.07;;;4.70;1.00;;;;;;5061337;28;20400;-62
2022/12/05 02:07:43;;;;;;;17.77;8.02;;;4.40;99.90;;;;;;5069317;28;20384;-60
2022/12/05 02:10:10;;;;;;;21.80;8.40;;;4.30;99.90;;;;;;5071031;28;20410;-60
2022/12/05 02:12:37;;;;;;;20.85;8.50;;;4.20;1.00;;;;;;5070142;28;20468;-60
2022/12/05 02:15:14;;;;;;;20.20;8.23;;;4.20;1.00;;;;;;5070743;28;20433;-60
2022/12/05 02:18:04;;;;;;;19.10;8.37;;;4.30;1.00;;;;;;5068660;28;20510;-60
2022/12/05 02:20:43;;;;;;;19.50;7.95;;;4.20;1.00;;;;;;5070213;28;20460;-60
2022/12/05 02:23:30;;;;;;;22.90;8.60;;;4.20;1.00;;;;;;5070924;28;20738;-60
2022/12/05 02:26:11;;;;;;;20.20;8.60;;;4.30;1.00;;;;;;5068976;28;20447;-61
2022/12/05 02:28:56;;;;;;;21.63;7.20;;;4.20;99.90;;;;;;5067955;28;20471;-60
2022/12/05 02:31:54;;;;;;;21.97;7.87;;;4.20;99.90;;;;;;5069226;28;20820;-64
2022/12/05 02:34:51;;;;;;;19.83;8.77;;;4.10;1.00;;;;;;5068709;28;20395;-60
2022/12/05 02:37:28;;;;;;;24.02;8.40;;;4.10;23.50;;;;;;5068247;28;20914;-60
2022/12/05 02:40:16;;;;;;;19.67;8.30;;;4.20;1.00;;;;;;5067825;28;20394;-60
2022/12/05 02:42:54;;;;;;;17.75;7.55;;;4.20;1.00;;;;;;5068272;28;20408;-60
2022/12/05 02:45:24;;;;;;;20.05;8.15;;;5.80;1.00;;;;;;5068605;28;20734;-60
2022/12/05 02:47:52;;;;;;;22.17;7.65;;;4.10;57.00;;;;;;5069897;28;20378;-60
2022/12/05 02:50:26;;;;;;;20.02;7.32;;;4.10;99.90;;;;;;5070480;28;20391;-60
2022/12/05 02:52:55;;;;;;;18.83;7.78;;;4.20;1.00;;;;;;5067716;28;20383;-60
2022/12/05 02:55:23;;;;;;;20.77;7.68;;;4.10;1.80;;;;;;5070216;28;20410;-61
2022/12/05 02:57:56;;;;;;;17.27;6.20;;;5.50;99.90;;;;;;5069578;28;20915;-61
2022/12/05 03:00:22;;;;;;;19.52;8.40;;;4.40;99.90;;;;;;5069911;28;20368;-65
2022/12/05 03:02:52;;;;;;;20.25;7.90;;;4.00;99.90;;;;;;5069305;28;20404;-60
2022/12/05 03:05:38;;;;;;;17.80;6.65;;;4.10;99.90;;;;;;5070222;28;20442;-60
2022/12/05 03:08:10;;;;;;;17.30;7.40;;;6.20;99.90;;;;;;5068467;28;20384;-61
2022/12/05 03:10:40;;;;;;;20.70;7.20;;;4.20;1.00;;;;;;5066890;28;20379;-60
2022/12/05 03:13:14;;;;;;;16.80;6.95;;;4.20;1.00;;;;;;5069900;28;20387;-61
2022/12/05 03:15:46;;;;;;;19.10;7.03;;;4.60;1.00;;;;;;5067362;28;20384;-61
2022/12/05 03:18:15;;;;;;;19.93;7.37;;;4.20;99.90;;;;;;5067470;28;20427;-60
2022/12/05 03:20:56;;;;;;;20.65;6.93;;;5.10;99.90;;;;;;5051496;28;20383;-60
2022/12/05 03:23:28;;;;;;;18.30;7.15;;;4.30;99.90;;;;;;5068503;28;20392;-62
2022/12/05 03:26:14;;;;;;;17.73;6.57;;;5.80;99.90;;;;;;5066671;28;20379;-61
2022/12/05 03:28:55;;;;;;;17.10;6.47;;;4.50;99.90;;;;;;5067175;28;20420;-60
2022/12/05 03:31:31;;;;;;;18.83;6.95;;;4.60;91.30;;;;;;5068067;28;20392;-60
2022/12/05 03:33:59;;;;;;;20.37;7.40;;;6.10;18.90;;;;;;5063164;28;20747;-60
2022/12/05 03:36:36;;;;;;;18.70;7.25;;;4.80;1.00;;;;;;5068153;28;20438;-65
2022/12/05 03:39:12;;;;;;;19.15;7.40;;;5.60;99.90;;;;;;5068310;28;20466;-60
2022/12/05 03:41:50;;;;;;;19.70;6.85;;;4.70;99.90;;;;;;5066813;28;20472;-60
2022/12/05 03:44:22;;;;;;;17.27;6.90;;;4.80;99.90;;;;;;5067001;28;20388;-60
2022/12/05 03:46:58;;;;;;;18.25;6.90;;;4.80;26.80;;;;;;5068595;28;20958;-60
2022/12/05 03:49:35;;;;;;;21.27;7.57;;;4.90;99.90;;;;;;5069530;28;20918;-64
2022/12/05 03:52:14;;;;;;;15.57;5.78;;;4.90;4.10;;;;;;5068007;28;20380;-61
2022/12/05 03:54:42;;;;;;;16.75;5.82;;;5.00;1.00;;;;;;5067301;28;20411;-60
2022/12/05 03:57:20;;;;;;;18.02;6.65;;;6.10;99.90;;;;;;5069419;28;20392;-60
2022/12/05 03:59:54;;;;;;;15.02;7.20;;;4.80;99.90;;;;;;5068740;28;20509;-60
2022/12/05 04:02:29;;;;;;;16.08;5.93;;;4.90;99.90;;;;;;5067493;28;20415;-60
2022/12/05 04:05:05;;;;;;;17.17;6.93;;;5.80;1.00;;;;;;5067138;28;20398;-60
2022/12/05 04:07:34;;;;;;;13.57;5.68;;;6.80;99.90;;;;;;5068372;28;20384;-60
2022/12/05 04:10:05;;;;;;;14.85;6.80;;;6.90;93.20;;;;;;5069362;28;20407;-60
2022/12/05 04:12:34;;;;;;;17.27;7.10;;;5.00;99.90;;;;;;5068497;28;20411;-60
2022/12/05 04:15:06;;;;;;;17.10;6.50;;;5.00;99.90;;;;;;5067660;28;20411;-61
2022/12/05 04:17:48;;;;;;;15.25;6.18;;;5.00;99.90;;;;;;5067079;28;20403;-60
2022/12/05 04:23:05;;;;;;;20.00;7.25;;;5.30;99.90;;;;;;5067839;28;20484;-60
2022/12/05 04:26:11;;;;;;;16.60;6.33;;;5.90;99.90;;;;;;5067013;28;20388;-60
2022/12/05 04:29:01;;;;;;;17.52;7.00;;;5.40;1.00;;;;;;5066436;28;20403;-61
2022/12/05 04:31:34;;;;;;;16.05;6.60;;;5.40;99.90;;;;;;5067044;28;20431;-65
2022/12/05 04:34:06;;;;;;;18.85;7.97;;;5.40;1.00;;;;;;5069364;28;20387;-60
2022/12/05 04:36:34;;;;;;;21.17;8.50;;;5.40;1.00;;;;;;5069702;28;20439;-60
2022/12/05 04:39:21;;;;;;;19.02;8.07;;;5.40;1.00;;;;;;5073088;28;20387;-60
2022/12/05 04:41:54;;;;;;;18.33;7.73;;;6.00;1.00;;;;;;5067089;28;21092;-61
2022/12/05 04:44:26;;;;;;;17.07;7.50;;;6.70;99.90;;;;;;5070452;28;20849;-60
2022/12/05 04:46:55;;;;;;;14.88;5.90;;;5.50;99.90;;;;;;5066972;28;20484;-61
2022/12/05 04:49:25;;;;;;;16.77;6.60;;;5.40;1.00;;;;;;5072657;28;20415;-60
2022/12/05 04:51:54;;;;;;;17.60;8.23;;;5.30;1.00;;;;;;5072074;28;20386;-60
2022/12/05 04:54:27;;;;;;;15.80;6.55;;;6.60;1.00;;;;;;5072206;28;20384;-60
2022/12/05 04:57:01;;;;;;;15.90;6.63;;;5.30;6.50;;;;;;5071161;28;20368;-60
2022/12/05 04:59:27;;;;;;;19.80;6.70;;;7.10;99.90;;;;;;5069498;28;20392;-64
2022/12/05 05:01:57;;;;;;;17.48;7.95;;;5.40;99.90;;;;;;5068308;28;20506;-60
2022/12/05 05:04:33;;;;;;;19.00;8.20;;;5.40;1.00;;;;;;5069168;28;20486;-60
2022/12/05 05:06:59;;;;;;;17.98;8.18;;;5.50;1.00;;;;;;5071125;28;20821;-61
2022/12/05 05:09:24;;;;;;;15.80;7.23;;;5.50;1.00;;;;;;5071993;28;20429;-66
2022/12/05 05:11:50;;;;;;;17.85;6.80;;;5.60;99.90;;;;;;5072473;28;20376;-60
2022/12/05 05:14:15;;;;;;;19.87;7.77;;;5.60;66.60;;;;;;5072451;28;20838;-60
2022/12/05 05:16:42;;;;;;;16.35;7.05;;;7.10;53.60;;;;;;5071836;28;20466;-60
2022/12/05 05:19:09;;;;;;;20.17;7.20;;;7.00;99.90;;;;;;5072351;28;20380;-60
2022/12/05 05:21:38;;;;;;;15.63;6.95;;;5.40;99.90;;;;;;5071738;28;20472;-60
2022/12/05 05:24:05;;;;;;;13.77;6.13;;;5.40;99.90;;;;;;5072221;28;20384;-59
2022/12/05 05:26:34;;;;;;;19.02;7.35;;;5.40;99.90;;;;;;5071368;28;20380;-60
2022/12/05 05:29:00;;;;;;;19.63;7.40;;;5.40;99.90;;;;;;5072091;28;20376;-60
2022/12/05 05:31:26;;;;;;;18.20;6.83;;;5.40;99.90;;;;;;5065131;28;20687;-66
2022/12/05 05:33:53;;;;;;;17.45;6.60;;;6.00;1.00;;;;;;5062305;28;20405;-60
2022/12/05 05:36:20;;;;;;;19.58;7.75;;;6.30;22.40;;;;;;5054721;28;20398;-60
2022/12/05 05:38:49;;;;;;;19.92;7.88;;;6.00;56.40;;;;;;5051443;28;20377;-60
2022/12/05 05:41:20;;;;;;;19.67;7.82;;;5.40;1.00;;;;;;5052030;28;20413;-60
2022/12/05 05:43:46;;;;;;;17.10;6.80;;;5.40;1.00;;;;;;5051075;28;20412;-60
2022/12/05 05:46:16;;;;;;;17.90;6.72;;;5.30;1.00;;;;;;5050951;28;20787;-60
2022/12/05 05:48:42;;;;;;;17.58;6.93;;;5.30;1.00;;;;;;5067706;28;20404;-60
2022/12/05 05:51:12;;;;;;;18.10;8.23;;;5.80;99.90;;;;;;5071392;28;20415;-60
2022/12/05 05:53:38;;;;;;;18.93;7.33;;;5.30;99.90;;;;;;5064321;28;20400;-61
2022/12/05 05:56:06;;;;;;;24.63;9.07;;;5.30;1.00;;;;;;5067297;28;20452;-60
2022/12/05 05:58:32;;;;;;;19.02;7.13;;;5.20;1.00;;;;;;5061915;28;20465;-60
2022/12/05 06:01:09;;;;;;;17.50;7.03;;;5.20;8.30;;;;;;5066044;28;20944;-60
2022/12/05 06:03:35;;;;;;;20.95;8.77;;;5.20;1.00;;;;;;5069149;28;20415;-60
2022/12/05 06:06:05;;;;;;;21.65;8.18;;;5.70;99.90;;;;;;5067130;28;20964;-61
2022/12/05 06:08:32;;;;;;;20.90;7.60;;;4.90;1.00;;;;;;5065949;28;20480;-61
2022/12/05 06:10:58;;;;;;;21.02;7.93;;;5.00;1.00;;;;;;5060417;28;20736;-60
2022/12/05 06:13:24;;;;;;;20.13;7.73;;;5.90;1.00;;;;;;5056032;28;20400;-60
2022/12/05 06:15:50;;;;;;;19.93;7.60;;;5.00;1.00;;;;;;5050174;28;21315;-59
2022/12/05 06:18:15;;;;;;;21.37;8.30;;;5.10;99.90;;;;;;5057888;28;20400;-60
2022/12/05 06:20:41;;;;;;;22.73;8.80;;;5.20;99.90;;;;;;5070008;28;20383;-60
2022/12/05 06:23:07;;;;;;;19.27;8.40;;;5.30;1.00;;;;;;5068664;28;20421;-60
2022/12/05 06:25:32;;;;;;;21.80;7.70;;;5.30;99.90;;;;;;5069480;28;20392;-60
2022/12/05 06:27:58;;;;;;;20.33;7.80;;;5.40;99.00;;;;;;5070778;28;20779;-61
2022/12/05 06:30:24;;;;;;;18.83;8.07;;;5.40;1.00;;;;;;5068619;28;20415;-61
2022/12/05 06:32:49;;;;;;;18.73;7.20;;;6.20;1.00;;;;;;5066255;28;20386;-60
2022/12/05 06:35:15;;;;;;;19.97;8.00;;;5.40;1.00;;;;;;5069857;28;20396;-60
2022/12/05 06:37:42;;;;;;;17.35;7.75;;;5.30;1.00;;;;;;5069488;28;20396;-60
2022/12/05 06:40:10;;;;;;;20.23;8.02;;;7.00;99.90;;;;;;5070692;28;20449;-61
2022/12/05 06:42:35;;;;;;;20.47;8.10;;;5.40;99.90;;;;;;5066680;28;20446;-61
2022/12/05 06:45:01;;;;;;;20.42;7.68;;;5.40;1.00;;;;;;5070206;28;20392;-61
2022/12/05 06:47:27;;;;;;;17.83;7.60;;;5.50;22.70;;;;;;5070017;28;20380;-65
2022/12/05 06:49:53;;;;;;;22.33;7.93;;;5.30;88.80;;;;;;5069171;28;20930;-61
2022/12/05 06:52:18;;;;;;;20.83;8.35;;;5.30;99.90;;;;;;5070166;28;20784;-61
2022/12/05 06:54:45;;;;;;;21.47;7.73;;;6.70;1.00;;;;;;5069540;28;20380;-61
2022/12/05 06:57:11;;;;;;;20.13;7.50;;;5.20;99.90;;;;;;5069672;28;20735;-61
2022/12/05 06:59:37;;;;;;;20.85;8.88;;;7.00;1.00;;;;;;5069172;28;20474;-60
2022/12/05 07:02:06;;;;;;;18.08;7.68;;;5.10;99.90;;;;;;5064999;28;20493;-61
2022/12/05 07:04:31;;;;;;;17.25;7.60;;;5.20;1.00;;;;;;5062713;28;20407;-64
2022/12/05 07:06:57;;;;;;;15.33;6.97;;;6.00;99.90;;;;;;5067502;28;20415;-61
2022/12/05 07:09:44;;;;;;;16.90;7.28;;;5.20;99.90;;;;;;5069772;28;20384;-61
2022/12/05 07:12:11;;;;;;;21.38;7.88;;;5.40;99.90;;;;;;5069016;28;20388;-61
2022/12/05 07:14:36;;;;;;;18.38;8.70;;;5.40;99.90;;;;;;5068628;28;20459;-62
2022/12/05 07:17:02;;;;;;;19.88;7.47;;;5.40;1.00;;;;;;5069614;28;20464;-61
2022/12/05 07:19:28;;;;;;;22.07;9.20;;;5.40;1.00;;;;;;5069453;28;20413;-65
2022/12/05 07:21:53;;;;;;;20.40;8.23;;;5.50;1.00;;;;;;5068897;28;20758;-61
2022/12/05 07:24:19;;;;;;;24.60;8.10;;;5.50;99.90;;;;;;5069235;28;20797;-61
2022/12/05 07:26:45;;;;;;;22.10;9.60;;;5.50;99.90;;;;;;5068992;28;20860;-60
2022/12/05 07:29:11;;;;;;;20.48;8.25;;;5.60;99.90;;;;;;5051957;28;20400;-61
2022/12/05 07:31:36;;;;;;;20.08;8.70;;;6.90;99.90;;;;;;5068785;28;20398;-61
2022/12/05 07:34:02;;;;;;;20.60;7.93;;;5.70;99.90;;;;;;5049953;28;20905;-61
2022/12/05 07:36:28;;;;;;;20.80;9.00;;;5.70;99.90;;;;;;5067180;28;20757;-65
2022/12/05 07:38:56;;;;;;;22.90;8.83;;;5.80;99.90;;;;;;5065182;28;20485;-60
2022/12/05 07:41:27;;;;;;;17.20;8.32;;;5.90;83.60;;;;;;5069345;28;20439;-63
2022/12/05 07:43:54;;;;;;;21.13;8.13;;;6.00;1.00;;;;;;5050574;28;20811;-61
2022/12/05 07:46:20;;;;;;;21.05;7.80;;;5.90;99.90;;;;;;5068548;28;20384;-61
2022/12/05 07:48:49;;;;;;;22.90;8.93;;;5.90;99.90;;;;;;5054256;28;20527;-61
2022/12/05 07:51:16;;;;;;;18.33;7.77;;;5.80;99.90;;;;;;5054175;28;20469;-61
2022/12/05 07:53:43;;;;;;;18.88;8.30;;;5.90;99.90;;;;;;5057726;28;20941;-60
2022/12/05 07:56:13;;;;;;;17.35;7.65;;;6.00;1.00;;;;;;5059196;28;20739;-60
2022/12/05 07:58:39;;;;;;;18.08;7.40;;;6.10;1.00;;;;;;5057146;28;20377;-63
2022/12/05 08:01:10;;;;;;;18.67;7.50;;;6.10;99.90;;;;;;5058143;28;20888;-63
2022/12/05 08:03:39;;;;;;;15.90;7.00;;;6.10;99.90;;;;;;5056261;28;20458;-62
2022/12/05 08:06:10;;;;;;;18.45;8.45;;;6.20;1.00;;;;;;5057692;28;20391;-62
2022/12/05 08:08:36;;;;;;;19.08;8.05;;;6.40;1.00;;;;;;5056664;28;20839;-62
2022/12/05 08:11:14;;;;;;;16.13;6.77;;;6.40;99.90;;;;;;5058515;28;20399;-62
2022/12/05 08:13:41;;;;;;;20.83;8.30;;;6.40;96.90;;;;;;5064597;28;20387;-63
2022/12/05 08:16:10;;;;;;;19.40;8.90;;;6.40;99.90;;;;;;5063433;28;20410;-62
2022/12/05 08:18:37;;;;;;;22.33;8.77;;;6.30;73.20;;;;;;5065379;28;20409;-62
2022/12/05 08:21:05;;;;;;;20.88;7.80;;;6.30;99.90;;;;;;5061543;28;20391;-63
2022/12/05 08:23:31;;;;;;;19.13;8.82;;;6.40;78.00;;;;;;5060933;28;20376;-66
2022/12/05 08:26:11;;;;;;;18.85;8.23;;;6.30;1.00;;;;;;5061261;28;20396;-62
2022/12/05 08:28:37;;;;;;;24.13;8.57;;;6.30;1.00;;;;;;5060529;28;20389;-65
2022/12/05 08:31:09;;;;;;;21.88;8.80;;;6.20;14.20;;;;;;5064056;28;20434;-60
2022/12/05 08:33:35;;;;;;;21.08;9.05;;;7.30;62.80;;;;;;5060252;28;20786;-63
2022/12/05 08:36:03;;;;;;;19.97;9.03;;;6.80;99.90;;;;;;5062594;28;20407;-62
2022/12/05 08:38:29;;;;;;;20.10;8.23;;;6.90;7.10;;;;;;5062769;28;20379;-66
2022/12/05 08:40:54;;;;;;;19.83;8.75;;;6.10;99.90;;;;;;5062448;28;21003;-63
2022/12/05 08:43:20;;;;;;;22.90;8.98;;;6.00;99.90;;;;;;5059981;28;20452;-63
2022/12/05 08:45:50;;;;;;;20.00;8.60;;;5.80;68.60;;;;;;5058354;28;20854;-63
2022/12/05 08:48:15;;;;;;;20.13;8.98;;;5.90;1.00;;;;;;5060719;28;20377;-63
2022/12/05 08:50:41;;;;;;;17.75;8.13;;;6.40;1.00;;;;;;5062850;28;20380;-64
2022/12/05 08:53:07;;;;;;;23.03;10.20;;;6.70;1.00;;;;;;5061898;28;20677;-62
2022/12/05 08:55:36;;;;;;;20.17;7.95;;;6.10;99.90;;;;;;5062670;28;20382;-62
2022/12/05 08:58:04;;;;;;;19.65;8.60;;;6.10;99.90;;;;;;5061871;28;20882;-63
2022/12/05 09:00:30;;;;;;;20.92;8.80;;;6.10;48.70;;;;;;5060693;28;20821;-65
2022/12/05 09:02:56;;;;;;;21.58;10.60;;;6.10;99.90;;;;;;5064857;28;20503;-62
2022/12/05 09:05:23;;;;;;;21.10;8.55;;;7.60;99.90;;;;;;5071025;28;20474;-62
2022/12/05 09:07:49;;;;;;;20.57;9.27;;;6.20;1.00;;;;;;5070895;28;20392;-62
2022/12/05 09:10:14;;;;;;;19.95;8.45;;;6.20;1.00;;;;;;5072052;28;20396;-63
2022/12/05 09:12:40;;;;;;;19.90;8.43;;;6.40;1.00;;;;;;5071534;28;20388;-62
2022/12/05 09:15:07;;;;;;;18.83;8.17;;;6.30;1.00;;;;;;5071747;28;20499;-62
2022/12/05 09:17:33;;;;;;;17.77;8.57;;;6.40;1.00;;;;;;5068761;28;20411;-64
2022/12/05 09:19:59;;;;;;;24.63;9.35;;;6.40;1.00;;;;;;5072184;28;20504;-62
2022/12/05 09:22:24;;;;;;;21.17;8.90;;;6.40;33.20;;;;;;5070992;28;20956;-62
2022/12/05 09:24:50;;;;;;;22.02;8.77;;;6.60;99.90;;;;;;5070644;28;20384;-63
2022/12/05 09:27:16;;;;;;;18.77;8.60;;;6.70;1.00;;;;;;5072099;28;20419;-62
2022/12/05 09:29:42;;;;;;;21.30;9.50;;;7.20;99.90;;;;;;5071037;28;20387;-63
2022/12/05 09:32:08;;;;;;;18.48;8.40;;;6.80;77.50;;;;;;5071600;28;20402;-62
2022/12/05 09:34:35;;;;;;;19.20;8.38;;;6.80;1.00;;;;;;5068567;28;20897;-62
2022/12/05 09:37:00;;;;;;;18.58;8.15;;;8.10;1.00;;;;;;5071871;28;20470;-62
2022/12/05 09:39:27;;;;;;;19.43;8.17;;;6.80;99.90;;;;;;5071502;28;20482;-63
2022/12/05 09:42:22;;;;;;;20.38;8.65;;;6.80;99.90;;;;;;5067586;28;20864;-62
2022/12/05 09:44:56;;;;;;;18.10;8.33;;;6.70;99.90;;;;;;5067181;28;20400;-62
2022/12/05 09:47:40;;;;;;;18.27;8.07;;;6.70;99.90;;;;;;5071353;28;20380;-62
2022/12/05 09:50:40;;;;;;;17.13;7.93;;;7.40;99.90;;;;;;5070477;28;20384;-63
2022/12/05 09:53:29;;;;;;;18.52;7.32;;;6.60;99.90;;;;;;5067881;28;20445;-62
2022/12/05 09:56:20;;;;;;;19.55;9.07;;;6.50;99.90;;;;;;5069967;28;20883;-63
2022/12/05 09:58:47;;;;;;;17.47;7.73;;;6.70;1.00;;;;;;5066983;28;20907;-63
2022/12/05 10:01:44;;;;;;;15.88;8.35;;;6.90;1.00;;;;;;5066497;28;20936;-62
2022/12/05 10:04:45;;;;;;;21.95;9.55;;;6.90;1.00;;;;;;5070808;28;20457;-63
2022/12/05 10:07:16;;;;;;;18.77;8.05;;;7.10;1.00;;;;;;5066438;28;20501;-63
2022/12/05 10:10:20;;;;;;;19.50;8.43;;;7.30;99.90;;;;;;5068588;28;20392;-62
2022/12/05 10:13:12;;;;;;;16.73;8.32;;;7.40;99.90;;;;;;5069062;28;20399;-62
2022/12/05 10:15:49;;;;;;;20.75;8.63;;;7.40;99.90;;;;;;5065126;28;20374;-62
2022/12/05 10:18:47;;;;;;;17.40;8.55;;;7.60;52.40;;;;;;5068579;28;20415;-63
2022/12/05 10:21:37;;;;;;;23.98;8.80;;;7.50;1.00;;;;;;5037484;28;20399;-62
2022/12/05 10:24:14;;;;;;;22.53;8.50;;;7.30;1.00;;;;;;5067716;28;20432;-62
2022/12/05 10:26:48;;;;;;;19.92;9.00;;;7.20;1.00;;;;;;5068131;28;20380;-62
2022/12/05 10:29:26;;;;;;;19.95;8.05;;;6.90;37.10;;;;;;5068127;28;20379;-62
2022/12/05 10:31:59;;;;;;;19.33;9.15;;;6.90;99.90;;;;;;5065375;28;20732;-62
2022/12/05 10:34:32;;;;;;;18.45;8.80;;;6.90;99.90;;;;;;5069552;28;20904;-63
2022/12/05 10:37:17;;;;;;;19.60;8.90;;;7.10;99.90;;;;;;5066823;28;20824;-65
2022/12/05 10:39:43;;;;;;;19.55;8.55;;;7.20;99.90;;;;;;5066126;28;20912;-62
2022/12/05 10:42:18;;;;;;;18.00;8.40;;;7.70;99.90;;;;;;5067398;28;20399;-63
2022/12/05 10:44:44;;;;;;;18.70;7.80;;;7.00;99.90;;;;;;5066785;28;20411;-63
2022/12/05 10:47:11;;;;;;;17.80;7.90;;;6.90;99.90;;;;;;5069294;28;20467;-63
2022/12/05 10:49:38;;;;;;;19.75;7.90;;;6.80;99.90;;;;;;5066685;28;20401;-62
2022/12/05 10:52:04;;;;;;;22.73;9.90;;;6.90;1.00;;;;;;5070215;28;20387;-63
2022/12/05 10:54:35;;;;;;;19.38;9.20;;;7.00;1.00;;;;;;5069944;28;20388;-65
2022/12/05 10:57:19;;;;;;;24.00;10.50;;;7.00;1.00;;;;;;5070306;28;20387;-61
2022/12/05 10:59:46;;;;;;;16.65;7.80;;;7.10;99.90;;;;;;5064328;28;20475;-61
2022/12/05 11:02:29;;;;;;;21.60;8.02;;;8.00;1.00;;;;;;5069910;28;20403;-61
2022/12/05 11:04:55;;;;;;;29.55;15.70;;;7.10;1.00;;;;;;5064833;28;20408;-61
2022/12/05 11:07:31;;;;;;;22.98;12.05;;;7.20;1.00;;;;;;5066810;28;20401;-62
2022/12/05 11:09:59;;;;;;;18.58;9.25;;;7.30;1.00;;;;;;5069389;28;20884;-62
2022/12/05 11:12:32;;;;;;;16.55;7.65;;;7.60;1.00;;;;;;5032805;28;20538;-63
2022/12/05 11:15:18;;;;;;;17.10;7.18;;;7.70;99.90;;;;;;5065699;28;20391;-62
2022/12/05 11:17:44;;;;;;;14.45;6.60;;;9.30;1.00;;;;;;5055773;28;20401;-63
2022/12/05 11:20:18;;;;;;;15.25;7.05;;;7.90;99.90;;;;;;5056937;28;20373;-61
2022/12/05 11:22:46;;;;;;;16.00;8.00;;;7.90;99.90;;;;;;5049535;28;20406;-62
2022/12/05 11:25:38;;;;;;;16.40;6.90;;;8.10;99.90;;;;;;5049796;28;20454;-62
2022/12/05 11:28:15;;;;;;;13.32;6.80;;;8.10;99.90;;;;;;5046288;28;20479;-61
2022/12/05 11:30:59;;;;;;;18.40;8.03;;;8.20;99.90;;;;;;5049114;28;20386;-58
2022/12/05 11:33:28;;;;;;;19.25;7.40;;;8.30;81.30;;;;;;5049452;28;20389;-60
2022/12/05 11:35:57;;;;;;;15.27;7.00;;;8.30;69.30;;;;;;5049007;28;20492;-60
2022/12/05 11:38:31;;;;;;;15.32;6.88;;;9.40;18.40;;;;;;5049716;28;20751;-60
2022/12/05 11:41:02;;;;;;;14.47;6.30;;;8.70;1.00;;;;;;5032003;28;20921;-59
2022/12/05 11:43:50;;;;;;;17.42;7.00;;;8.60;1.00;;;;;;5049421;28;20401;-60
2022/12/05 11:46:21;;;;;;;14.88;6.40;;;8.60;1.00;;;;;;5050472;28;20381;-60
2022/12/05 11:49:22;;;;;;;13.35;5.32;;;8.60;1.00;;;;;;5089230;28;20834;-60
2022/12/05 11:52:06;;;;;;;13.57;6.10;;;8.50;99.90;;;;;;5033279;28;20937;-61
2022/12/05 11:54:46;;;;;;;12.10;5.70;;;8.30;99.90;;;;;;5089820;28;20374;-67
2022/12/05 11:57:34;;;;;;;15.27;6.45;;;8.20;1.00;;;;;;5089448;28;20401;-61
2022/12/05 12:00:15;;;;;;;13.80;5.80;;;8.50;99.90;;;;;;5040620;28;20863;-61
2022/12/05 12:03:07;;;;;;;15.55;6.65;;;8.70;99.90;;;;;;5088747;28;20402;-61
2022/12/05 12:05:55;;;;;;;13.05;5.65;;;8.60;99.90;;;;;;5071518;28;20894;-66
2022/12/05 12:08:26;;;;;;;14.38;5.93;;;8.70;99.90;;;;;;5065620;28;20416;-62
2022/12/05 12:11:33;;;;;;;13.15;5.60;;;8.70;99.90;;;;;;5063284;28;20866;-61
2022/12/05 12:14:17;;;;;;;12.00;6.05;;;8.90;99.90;;;;;;5067769;28;20467;-62
2022/12/05 12:17:15;;;;;;;13.63;6.20;;;9.10;99.90;;;;;;5069124;28;20883;-60
2022/12/05 12:19:59;;;;;;;14.57;6.43;;;9.00;99.90;;;;;;5036878;28;20395;-62
2022/12/05 12:23:04;;;;;;;15.85;7.15;;;8.80;99.90;;;;;;5069319;28;20757;-61
2022/12/05 12:25:50;;;;;;;15.50;6.30;;;8.80;99.90;;;;;;5039480;28;20502;-61
2022/12/05 12:28:25;;;;;;;16.30;6.80;;;9.00;99.90;;;;;;5057029;28;20409;-61
2022/12/05 12:31:04;;;;;;;15.02;6.10;;;9.20;99.90;;;;;;5048471;28;20385;-61
2022/12/05 12:33:36;;;;;;;12.43;5.50;;;9.10;99.90;;;;;;5065072;28;20412;-59
2022/12/05 12:36:41;;;;;;;13.02;5.90;;;9.00;99.90;;;;;;5063820;28;20418;-62
2022/12/05 12:39:15;;;;;;;15.27;6.50;;;9.00;99.90;;;;;;5065818;28;20418;-60
2022/12/05 12:41:59;;;;;;;12.88;6.10;;;8.90;99.90;;;;;;5062708;28;20480;-60
2022/12/05 12:44:48;;;;;;;15.43;6.97;;;8.90;99.90;;;;;;5068040;28;20388;-60
2022/12/05 12:47:30;;;;;;;14.33;6.83;;;8.90;99.90;;;;;;5077503;28;20920;-61
2022/12/05 12:50:08;;;;;;;15.23;7.20;;;8.80;99.90;;;;;;5049162;28;20780;-61
2022/12/05 12:53:12;;;;;;;12.38;5.93;;;8.90;99.90;;;;;;5065154;28;20428;-65
2022/12/05 12:56:13;;;;;;;15.63;7.00;;;9.00;99.90;;;;;;5063143;28;20529;-59
2022/12/05 12:59:06;;;;;;;17.80;9.02;;;9.10;99.90;;;;;;5069601;28;20415;-59
2022/12/05 13:02:12;;;;;;;16.33;8.63;;;9.20;99.90;;;;;;5069366;28;20408;-64
2022/12/05 13:04:53;;;;;;;21.75;10.18;;;9.00;99.90;;;;;;5068015;28;20422;-60
2022/12/05 13:07:33;;;;;;;18.35;8.27;;;9.00;99.90;;;;;;5072690;28;20633;-61
2022/12/05 13:10:17;;;;;;;19.05;7.93;;;8.90;98.70;;;;;;5071533;28;20387;-60
2022/12/05 13:12:44;;;;;;;14.47;6.93;;;8.90;97.50;;;;;;5051518;28;20389;-59
2022/12/05 13:15:14;;;;;;;15.03;6.20;;;9.00;92.00;;;;;;5070331;28;20388;-58
2022/12/05 13:17:44;;;;;;;15.20;6.97;;;8.90;76.70;;;;;;5084304;28;20401;-58
2022/12/05 13:20:18;;;;;;;15.82;6.13;;;8.70;74.50;;;;;;5092662;28;20371;-59
2022/12/05 13:22:45;;;;;;;14.60;5.90;;;8.60;87.30;;;;;;5071150;28;20503;-58